sensor_id;sensor_type;location;lat;lon;timestamp;temperature;humidity
2497;DHT22;1259;48.306;14.374;2023-07-31T00:00:57;18.00;99.90
2497;DHT22;1259;48.306;14.374;2023-07-31T00:03:24;18.00;99.90
2497;DHT22;1259;48.306;14.374;2023-07-31T00:05:51;17.90;99.90
2497;DHT22;1259;48.306;14.374;2023-07-31T00:08:17;17.90;99.90
2497;DHT22;1259;48.306;14.374;2023-07-31T00:10:44;17.80;99.90
2497;DHT22;1259;48.306;14.374;2023-07-31T00:13:12;17.80;99.90
2497;DHT22;1259;48.306;14.374;2023-07-31T00:15:39;17.80;99.90
2497;DHT22;1259;48.306;14.374;2023-07-31T00:18:05;17.80;99.90
2497;DHT22;1259;48.306;14.374;2023-07-31T00:20:32;17.80;99.90
2497;DHT22;1259;48.306;14.374;2023-07-31T00:22:59;17.80;99.90
2497;DHT22;1259;48.306;14.374;2023-07-31T00:25:25;17.70;99.90
2497;DHT22;1259;48.306;14.374;2023-07-31T00:27:52;17.70;99.90
2497;DHT22;1259;48.306;14.374;2023-07-31T00:30:20;17.70;99.90
2497;DHT22;1259;48.306;14.374;2023-07-31T00:32:47;17.70;99.90
2497;DHT22;1259;48.306;14.374;2023-07-31T00:35:14;17.70;99.90
2497;DHT22;1259;48.306;14.374;2023-07-31T00:37:41;17.70;99.90
2497;DHT22;1259;48.306;14.374;2023-07-31T00:40:08;17.70;99.90
2497;DHT22;1259;48.306;14.374;2023-07-31T00:42:34;17.60;99.90
2497;DHT22;1259;48.306;14.374;2023-07-31T00:45:01;17.60;99.90
2497;DHT22;1259;48.306;14.374;2023-07-31T00:47:29;17.60;99.90
2497;DHT22;1259;48.306;14.374;2023-07-31T00:49:56;17.60;99.90
2497;DHT22;1259;48.306;14.374;2023-07-31T00:52:22;17.60;99.90
2497;DHT22;1259;48.306;14.374;2023-07-31T00:54:49;17.50;99.90
2497;DHT22;1259;48.306;14.374;2023-07-31T00:57:16;17.50;99.90
2497;DHT22;1259;48.306;14.374;2023-07-31T00:59:43;17.60;99.90
2497;DHT22;1259;48.306;14.374;2023-07-31T01:02:11;17.50;99.90
2497;DHT22;1259;48.306;14.374;2023-07-31T01:04:41;17.50;99.90
2497;DHT22;1259;48.306;14.374;2023-07-31T01:07:11;17.50;99.90
2497;DHT22;1259;48.306;14.374;2023-07-31T01:09:40;17.40;99.90
2497;DHT22;1259;48.306;14.374;2023-07-31T01:12:09;17.40;99.90
2497;DHT22;1259;48.306;14.374;2023-07-31T01:14:39;17.50;99.90
2497;DHT22;1259;48.306;14.374;2023-07-31T01:17:05;17.50;99.90
2497;DHT22;1259;48.306;14.374;2023-07-31T01:19:32;17.50;99.90
2497;DHT22;1259;48.306;14.374;2023-07-31T01:22:08;17.40;99.90
2497;DHT22;1259;48.306;14.374;2023-07-31T01:24:40;17.40;99.90
2497;DHT22;1259;48.306;14.374;2023-07-31T01:27:10;17.50;99.90
2497;DHT22;1259;48.306;14.374;2023-07-31T01:29:43;17.40;99.90
2497;DHT22;1259;48.306;14.374;2023-07-31T01:32:10;17.40;99.90
2497;DHT22;1259;48.306;14.374;2023-07-31T01:34:37;17.40;99.90
2497;DHT22;1259;48.306;14.374;2023-07-31T01:37:04;17.40;99.90
2497;DHT22;1259;48.306;14.374;2023-07-31T01:39:31;17.30;99.90
2497;DHT22;1259;48.306;14.374;2023-07-31T01:41:57;17.20;99.90
2497;DHT22;1259;48.306;14.374;2023-07-31T01:44:27;17.10;99.90
2497;DHT22;1259;48.306;14.374;2023-07-31T01:46:54;17.10;99.90
2497;DHT22;1259;48.306;14.374;2023-07-31T01:49:21;17.10;99.90
2497;DHT22;1259;48.306;14.374;2023-07-31T01:51:47;17.20;99.90
2497;DHT22;1259;48.306;14.374;2023-07-31T01:54:14;17.20;99.90
2497;DHT22;1259;48.306;14.374;2023-07-31T01:56:41;17.10;99.90
2497;DHT22;1259;48.306;14.374;2023-07-31T01:59:07;17.00;99.90
2497;DHT22;1259;48.306;14.374;2023-07-31T02:01:35;17.10;99.90
2497;DHT22;1259;48.306;14.374;2023-07-31T02:04:02;17.00;99.90
2497;DHT22;1259;48.306;14.374;2023-07-31T02:06:30;16.90;99.90
2497;DHT22;1259;48.306;14.374;2023-07-31T02:08:56;16.90;99.90
2497;DHT22;1259;48.306;14.374;2023-07-31T02:11:23;16.90;99.90
2497;DHT22;1259;48.306;14.374;2023-07-31T02:13:50;16.80;99.90
2497;DHT22;1259;48.306;14.374;2023-07-31T02:16:17;16.80;99.90
2497;DHT22;1259;48.306;14.374;2023-07-31T02:18:45;16.80;99.90
2497;DHT22;1259;48.306;14.374;2023-07-31T02:21:11;16.70;99.90
2497;DHT22;1259;48.306;14.374;2023-07-31T02:23:38;16.70;99.90
2497;DHT22;1259;48.306;14.374;2023-07-31T02:26:04;16.60;99.90
2497;DHT22;1259;48.306;14.374;2023-07-31T02:28:31;16.60;99.90
2497;DHT22;1259;48.306;14.374;2023-07-31T02:30:58;16.60;99.90
2497;DHT22;1259;48.306;14.374;2023-07-31T02:33:25;16.60;99.90
2497;DHT22;1259;48.306;14.374;2023-07-31T02:35:53;16.60;99.90
2497;DHT22;1259;48.306;14.374;2023-07-31T02:38:19;16.50;99.90
2497;DHT22;1259;48.306;14.374;2023-07-31T02:40:45;16.50;99.90
2497;DHT22;1259;48.306;14.374;2023-07-31T02:43:12;16.40;99.90
2497;DHT22;1259;48.306;14.374;2023-07-31T02:45:38;16.40;99.90
2497;DHT22;1259;48.306;14.374;2023-07-31T02:48:05;16.30;99.90
2497;DHT22;1259;48.306;14.374;2023-07-31T02:50:32;16.20;99.90
2497;DHT22;1259;48.306;14.374;2023-07-31T02:53:00;16.20;99.90
2497;DHT22;1259;48.306;14.374;2023-07-31T02:55:26;16.20;99.90
2497;DHT22;1259;48.306;14.374;2023-07-31T02:57:53;16.20;99.90
2497;DHT22;1259;48.306;14.374;2023-07-31T03:00:20;16.20;99.90
2497;DHT22;1259;48.306;14.374;2023-07-31T03:02:46;16.20;99.90
2497;DHT22;1259;48.306;14.374;2023-07-31T03:05:13;16.20;99.90
2497;DHT22;1259;48.306;14.374;2023-07-31T03:07:40;16.20;99.90
2497;DHT22;1259;48.306;14.374;2023-07-31T03:10:08;16.20;99.90
2497;DHT22;1259;48.306;14.374;2023-07-31T03:12:35;16.10;99.90
2497;DHT22;1259;48.306;14.374;2023-07-31T03:15:01;16.10;99.90
2497;DHT22;1259;48.306;14.374;2023-07-31T03:17:28;16.00;99.90
2497;DHT22;1259;48.306;14.374;2023-07-31T03:19:55;16.10;99.90
2497;DHT22;1259;48.306;14.374;2023-07-31T03:22:21;16.00;99.90
2497;DHT22;1259;48.306;14.374;2023-07-31T03:24:48;16.00;99.90
2497;DHT22;1259;48.306;14.374;2023-07-31T03:27:16;16.10;99.90
2497;DHT22;1259;48.306;14.374;2023-07-31T03:29:43;16.00;99.90
2497;DHT22;1259;48.306;14.374;2023-07-31T03:32:09;16.00;99.90
2497;DHT22;1259;48.306;14.374;2023-07-31T03:34:36;15.90;99.90
2497;DHT22;1259;48.306;14.374;2023-07-31T03:37:03;15.90;99.90
2497;DHT22;1259;48.306;14.374;2023-07-31T03:39:30;15.80;99.90
2497;DHT22;1259;48.306;14.374;2023-07-31T03:41:56;15.80;99.90
2497;DHT22;1259;48.306;14.374;2023-07-31T03:44:24;15.80;99.90
2497;DHT22;1259;48.306;14.374;2023-07-31T03:46:51;15.90;99.90
2497;DHT22;1259;48.306;14.374;2023-07-31T03:49:18;15.80;99.90
2497;DHT22;1259;48.306;14.374;2023-07-31T03:51:44;15.80;99.90
2497;DHT22;1259;48.306;14.374;2023-07-31T03:54:11;15.80;99.90
2497;DHT22;1259;48.306;14.374;2023-07-31T03:56:38;15.80;99.90
2497;DHT22;1259;48.306;14.374;2023-07-31T03:59:05;15.90;99.90
2497;DHT22;1259;48.306;14.374;2023-07-31T04:01:33;15.90;99.90
2497;DHT22;1259;48.306;14.374;2023-07-31T04:04:00;15.90;99.90
2497;DHT22;1259;48.306;14.374;2023-07-31T04:06:26;15.90;99.90
2497;DHT22;1259;48.306;14.374;2023-07-31T04:08:53;15.90;99.90
2497;DHT22;1259;48.306;14.374;2023-07-31T04:11:22;15.80;99.90
2497;DHT22;1259;48.306;14.374;2023-07-31T04:13:48;15.80;99.90
2497;DHT22;1259;48.306;14.374;2023-07-31T04:16:15;15.80;99.90
2497;DHT22;1259;48.306;14.374;2023-07-31T04:18:43;15.90;99.90
2497;DHT22;1259;48.306;14.374;2023-07-31T04:21:10;15.80;99.90
2497;DHT22;1259;48.306;14.374;2023-07-31T04:23:37;15.90;99.90
2497;DHT22;1259;48.306;14.374;2023-07-31T04:26:03;16.00;99.90
2497;DHT22;1259;48.306;14.374;2023-07-31T04:28:30;15.90;99.90
2497;DHT22;1259;48.306;14.374;2023-07-31T04:30:57;15.90;99.90
2497;DHT22;1259;48.306;14.374;2023-07-31T04:33:24;15.90;99.90
2497;DHT22;1259;48.306;14.374;2023-07-31T04:35:52;15.90;99.90
2497;DHT22;1259;48.306;14.374;2023-07-31T04:38:19;15.90;99.90
2497;DHT22;1259;48.306;14.374;2023-07-31T04:40:46;15.90;99.90
2497;DHT22;1259;48.306;14.374;2023-07-31T04:43:13;15.90;99.90
2497;DHT22;1259;48.306;14.374;2023-07-31T04:45:41;15.90;99.90
2497;DHT22;1259;48.306;14.374;2023-07-31T04:48:08;15.90;99.90
2497;DHT22;1259;48.306;14.374;2023-07-31T04:50:35;15.90;99.90
2497;DHT22;1259;48.306;14.374;2023-07-31T04:53:03;15.90;99.90
2497;DHT22;1259;48.306;14.374;2023-07-31T04:55:30;15.90;99.90
2497;DHT22;1259;48.306;14.374;2023-07-31T04:57:57;15.80;99.90
2497;DHT22;1259;48.306;14.374;2023-07-31T05:00:24;15.80;99.90
2497;DHT22;1259;48.306;14.374;2023-07-31T05:02:50;15.80;99.90
2497;DHT22;1259;48.306;14.374;2023-07-31T05:05:17;15.80;99.90
2497;DHT22;1259;48.306;14.374;2023-07-31T05:07:44;15.80;99.90
2497;DHT22;1259;48.306;14.374;2023-07-31T05:10:12;15.70;99.90
2497;DHT22;1259;48.306;14.374;2023-07-31T05:12:38;15.80;99.90
2497;DHT22;1259;48.306;14.374;2023-07-31T05:15:05;15.90;99.90
2497;DHT22;1259;48.306;14.374;2023-07-31T05:17:32;15.80;99.90
2497;DHT22;1259;48.306;14.374;2023-07-31T05:19:59;15.90;99.90
2497;DHT22;1259;48.306;14.374;2023-07-31T05:22:26;15.90;99.90
2497;DHT22;1259;48.306;14.374;2023-07-31T05:24:52;16.00;99.90
2497;DHT22;1259;48.306;14.374;2023-07-31T05:27:20;16.10;99.90
2497;DHT22;1259;48.306;14.374;2023-07-31T05:29:47;16.10;99.90
2497;DHT22;1259;48.306;14.374;2023-07-31T05:32:14;16.20;99.90
2497;DHT22;1259;48.306;14.374;2023-07-31T05:34:40;16.30;99.90
2497;DHT22;1259;48.306;14.374;2023-07-31T05:37:07;16.40;99.90
2497;DHT22;1259;48.306;14.374;2023-07-31T05:39:34;16.50;99.90
2497;DHT22;1259;48.306;14.374;2023-07-31T05:42:00;16.70;99.90
2497;DHT22;1259;48.306;14.374;2023-07-31T05:44:28;16.80;99.90
2497;DHT22;1259;48.306;14.374;2023-07-31T05:46:55;16.90;99.90
2497;DHT22;1259;48.306;14.374;2023-07-31T05:49:22;17.00;99.90
2497;DHT22;1259;48.306;14.374;2023-07-31T05:51:48;17.00;99.90
2497;DHT22;1259;48.306;14.374;2023-07-31T05:54:15;17.00;99.90
2497;DHT22;1259;48.306;14.374;2023-07-31T05:56:42;17.10;99.90
2497;DHT22;1259;48.306;14.374;2023-07-31T05:59:08;17.20;99.90
2497;DHT22;1259;48.306;14.374;2023-07-31T06:01:37;17.30;99.90
2497;DHT22;1259;48.306;14.374;2023-07-31T06:04:03;17.20;99.90
2497;DHT22;1259;48.306;14.374;2023-07-31T06:06:30;17.30;99.90
2497;DHT22;1259;48.306;14.374;2023-07-31T06:08:57;17.40;99.90
2497;DHT22;1259;48.306;14.374;2023-07-31T06:11:23;17.40;99.90
2497;DHT22;1259;48.306;14.374;2023-07-31T06:13:50;17.60;99.90
2497;DHT22;1259;48.306;14.374;2023-07-31T06:16:17;17.70;99.90
2497;DHT22;1259;48.306;14.374;2023-07-31T06:18:45;17.90;99.90
2497;DHT22;1259;48.306;14.374;2023-07-31T06:21:11;17.90;99.90
2497;DHT22;1259;48.306;14.374;2023-07-31T06:23:38;18.10;99.90
2497;DHT22;1259;48.306;14.374;2023-07-31T06:26:05;18.20;99.90
2497;DHT22;1259;48.306;14.374;2023-07-31T06:28:31;18.30;99.90
2497;DHT22;1259;48.306;14.374;2023-07-31T06:30:58;18.60;99.90
2497;DHT22;1259;48.306;14.374;2023-07-31T06:33:25;18.70;99.90
2497;DHT22;1259;48.306;14.374;2023-07-31T06:35:53;18.90;99.90
2497;DHT22;1259;48.306;14.374;2023-07-31T06:38:21;18.80;99.90
2497;DHT22;1259;48.306;14.374;2023-07-31T06:40:48;18.90;99.90
2497;DHT22;1259;48.306;14.374;2023-07-31T06:43:15;19.00;99.90
2497;DHT22;1259;48.306;14.374;2023-07-31T06:45:42;19.10;99.90
2497;DHT22;1259;48.306;14.374;2023-07-31T06:48:09;19.20;99.90
2497;DHT22;1259;48.306;14.374;2023-07-31T06:50:35;19.30;99.90
2497;DHT22;1259;48.306;14.374;2023-07-31T06:53:03;19.40;99.90
2497;DHT22;1259;48.306;14.374;2023-07-31T06:55:30;19.20;99.90
2497;DHT22;1259;48.306;14.374;2023-07-31T06:57:57;19.40;99.90
2497;DHT22;1259;48.306;14.374;2023-07-31T07:00:23;19.70;99.90
2497;DHT22;1259;48.306;14.374;2023-07-31T07:02:50;19.70;99.90
2497;DHT22;1259;48.306;14.374;2023-07-31T07:05:17;19.80;99.90
2497;DHT22;1259;48.306;14.374;2023-07-31T07:07:44;19.80;99.90
2497;DHT22;1259;48.306;14.374;2023-07-31T07:10:12;20.10;99.90
2497;DHT22;1259;48.306;14.374;2023-07-31T07:12:39;20.20;99.90
2497;DHT22;1259;48.306;14.374;2023-07-31T07:15:06;20.30;99.90
2497;DHT22;1259;48.306;14.374;2023-07-31T07:17:33;20.60;99.90
2497;DHT22;1259;48.306;14.374;2023-07-31T07:19:59;20.50;99.90
2497;DHT22;1259;48.306;14.374;2023-07-31T07:22:26;21.00;99.90
2497;DHT22;1259;48.306;14.374;2023-07-31T07:24:53;21.20;99.90
2497;DHT22;1259;48.306;14.374;2023-07-31T07:27:21;21.30;99.90
2497;DHT22;1259;48.306;14.374;2023-07-31T07:29:49;21.30;99.90
2497;DHT22;1259;48.306;14.374;2023-07-31T07:32:16;21.10;99.90
2497;DHT22;1259;48.306;14.374;2023-07-31T07:34:44;20.90;99.90
2497;DHT22;1259;48.306;14.374;2023-07-31T07:37:11;20.70;99.90
2497;DHT22;1259;48.306;14.374;2023-07-31T07:39:38;20.70;99.90
2497;DHT22;1259;48.306;14.374;2023-07-31T07:42:04;20.90;99.90
2497;DHT22;1259;48.306;14.374;2023-07-31T07:44:32;20.80;99.90
2497;DHT22;1259;48.306;14.374;2023-07-31T07:46:59;20.60;99.90
2497;DHT22;1259;48.306;14.374;2023-07-31T07:49:26;20.70;99.90
2497;DHT22;1259;48.306;14.374;2023-07-31T07:51:52;20.80;99.90
2497;DHT22;1259;48.306;14.374;2023-07-31T07:54:19;20.70;99.90
2497;DHT22;1259;48.306;14.374;2023-07-31T07:56:46;20.90;99.90
2497;DHT22;1259;48.306;14.374;2023-07-31T07:59:13;21.00;99.90
2497;DHT22;1259;48.306;14.374;2023-07-31T08:01:41;20.90;99.90
2497;DHT22;1259;48.306;14.374;2023-07-31T08:04:07;20.70;99.90
2497;DHT22;1259;48.306;14.374;2023-07-31T08:06:34;21.00;99.90
2497;DHT22;1259;48.306;14.374;2023-07-31T08:09:01;20.90;99.90
2497;DHT22;1259;48.306;14.374;2023-07-31T08:11:31;20.90;99.90
2497;DHT22;1259;48.306;14.374;2023-07-31T08:13:58;20.90;99.90
2497;DHT22;1259;48.306;14.374;2023-07-31T08:16:24;20.70;99.90
2497;DHT22;1259;48.306;14.374;2023-07-31T08:18:52;20.80;99.90
2497;DHT22;1259;48.306;14.374;2023-07-31T08:21:19;20.70;99.90
2497;DHT22;1259;48.306;14.374;2023-07-31T08:23:46;20.70;99.90
2497;DHT22;1259;48.306;14.374;2023-07-31T08:26:14;20.70;99.90
2497;DHT22;1259;48.306;14.374;2023-07-31T08:28:41;20.90;99.90
2497;DHT22;1259;48.306;14.374;2023-07-31T08:31:07;20.70;99.90
2497;DHT22;1259;48.306;14.374;2023-07-31T08:33:34;20.80;99.90
2497;DHT22;1259;48.306;14.374;2023-07-31T08:36:02;20.90;99.90
2497;DHT22;1259;48.306;14.374;2023-07-31T08:38:29;20.90;99.90
2497;DHT22;1259;48.306;14.374;2023-07-31T08:40:56;20.90;99.90
2497;DHT22;1259;48.306;14.374;2023-07-31T08:43:24;20.90;99.90
2497;DHT22;1259;48.306;14.374;2023-07-31T08:45:52;20.80;99.90
2497;DHT22;1259;48.306;14.374;2023-07-31T08:48:19;20.70;99.90
2497;DHT22;1259;48.306;14.374;2023-07-31T08:50:46;20.80;99.90
2497;DHT22;1259;48.306;14.374;2023-07-31T08:53:14;20.70;99.90
2497;DHT22;1259;48.306;14.374;2023-07-31T08:55:42;20.80;99.90
2497;DHT22;1259;48.306;14.374;2023-07-31T08:58:09;21.00;99.90
2497;DHT22;1259;48.306;14.374;2023-07-31T09:00:36;21.00;99.90
2497;DHT22;1259;48.306;14.374;2023-07-31T09:03:03;21.00;99.90
2497;DHT22;1259;48.306;14.374;2023-07-31T09:05:35;21.00;99.90
2497;DHT22;1259;48.306;14.374;2023-07-31T09:08:05;21.00;99.90
2497;DHT22;1259;48.306;14.374;2023-07-31T09:10:33;21.10;99.90
2497;DHT22;1259;48.306;14.374;2023-07-31T09:13:00;21.00;99.90
2497;DHT22;1259;48.306;14.374;2023-07-31T09:15:27;21.00;99.90
2497;DHT22;1259;48.306;14.374;2023-07-31T09:17:58;21.00;99.90
2497;DHT22;1259;48.306;14.374;2023-07-31T09:20:25;21.10;99.90
2497;DHT22;1259;48.306;14.374;2023-07-31T09:22:52;21.00;99.90
2497;DHT22;1259;48.306;14.374;2023-07-31T09:25:19;21.10;99.90
2497;DHT22;1259;48.306;14.374;2023-07-31T09:27:49;21.00;99.90
2497;DHT22;1259;48.306;14.374;2023-07-31T09:30:16;21.10;99.90
2497;DHT22;1259;48.306;14.374;2023-07-31T09:32:43;21.20;99.90
2497;DHT22;1259;48.306;14.374;2023-07-31T09:35:19;21.30;99.90
2497;DHT22;1259;48.306;14.374;2023-07-31T09:37:50;21.30;99.90
2497;DHT22;1259;48.306;14.374;2023-07-31T09:40:26;21.60;99.90
2497;DHT22;1259;48.306;14.374;2023-07-31T09:42:55;21.60;99.90
2497;DHT22;1259;48.306;14.374;2023-07-31T09:45:22;21.80;99.90
2497;DHT22;1259;48.306;14.374;2023-07-31T09:47:48;22.00;99.90
2497;DHT22;1259;48.306;14.374;2023-07-31T09:50:15;22.10;99.90
2497;DHT22;1259;48.306;14.374;2023-07-31T09:52:42;22.40;99.90
2497;DHT22;1259;48.306;14.374;2023-07-31T09:55:09;22.50;99.60
2497;DHT22;1259;48.306;14.374;2023-07-31T09:57:36;22.60;99.50
2497;DHT22;1259;48.306;14.374;2023-07-31T10:00:05;22.70;99.40
2497;DHT22;1259;48.306;14.374;2023-07-31T10:02:34;22.60;99.30
2497;DHT22;1259;48.306;14.374;2023-07-31T10:05:02;22.70;98.80
2497;DHT22;1259;48.306;14.374;2023-07-31T10:07:29;22.50;98.60
2497;DHT22;1259;48.306;14.374;2023-07-31T10:09:57;22.50;98.60
2497;DHT22;1259;48.306;14.374;2023-07-31T10:12:24;22.60;97.80
2497;DHT22;1259;48.306;14.374;2023-07-31T10:14:53;22.50;96.80
2497;DHT22;1259;48.306;14.374;2023-07-31T10:17:22;22.50;97.00
2497;DHT22;1259;48.306;14.374;2023-07-31T10:19:49;22.60;97.60
2497;DHT22;1259;48.306;14.374;2023-07-31T10:22:16;22.30;96.20
2497;DHT22;1259;48.306;14.374;2023-07-31T10:24:44;22.50;96.60
2497;DHT22;1259;48.306;14.374;2023-07-31T10:27:11;22.40;96.30
2497;DHT22;1259;48.306;14.374;2023-07-31T10:29:38;22.60;97.50
2497;DHT22;1259;48.306;14.374;2023-07-31T10:32:05;22.80;97.30
2497;DHT22;1259;48.306;14.374;2023-07-31T10:34:35;22.90;97.00
2497;DHT22;1259;48.306;14.374;2023-07-31T10:37:21;23.00;96.70
2497;DHT22;1259;48.306;14.374;2023-07-31T10:39:54;23.30;95.80
2497;DHT22;1259;48.306;14.374;2023-07-31T10:42:24;23.40;95.50
2497;DHT22;1259;48.306;14.374;2023-07-31T10:44:56;23.40;94.80
2497;DHT22;1259;48.306;14.374;2023-07-31T10:47:22;23.20;94.40
2497;DHT22;1259;48.306;14.374;2023-07-31T10:49:50;23.20;95.00
2497;DHT22;1259;48.306;14.374;2023-07-31T10:52:19;23.40;94.20
2497;DHT22;1259;48.306;14.374;2023-07-31T10:54:47;23.90;95.10
2497;DHT22;1259;48.306;14.374;2023-07-31T10:57:20;24.10;95.20
2497;DHT22;1259;48.306;14.374;2023-07-31T10:59:48;24.20;93.30
2497;DHT22;1259;48.306;14.374;2023-07-31T11:02:23;24.40;93.00
2497;DHT22;1259;48.306;14.374;2023-07-31T11:07:48;24.10;92.20
2497;DHT22;1259;48.306;14.374;2023-07-31T11:10:18;24.40;91.70
2497;DHT22;1259;48.306;14.374;2023-07-31T11:12:45;24.40;92.80
2497;DHT22;1259;48.306;14.374;2023-07-31T11:15:11;24.10;92.00
2497;DHT22;1259;48.306;14.374;2023-07-31T11:17:38;24.00;92.50
2497;DHT22;1259;48.306;14.374;2023-07-31T11:20:05;24.00;91.30
2497;DHT22;1259;48.306;14.374;2023-07-31T11:22:32;24.00;90.40
2497;DHT22;1259;48.306;14.374;2023-07-31T11:25:02;23.90;90.40
2497;DHT22;1259;48.306;14.374;2023-07-31T11:27:29;23.90;90.10
2497;DHT22;1259;48.306;14.374;2023-07-31T11:29:59;24.10;91.10
2497;DHT22;1259;48.306;14.374;2023-07-31T11:32:26;23.80;88.80
2497;DHT22;1259;48.306;14.374;2023-07-31T11:34:53;23.60;89.30
2497;DHT22;1259;48.306;14.374;2023-07-31T11:37:20;23.70;90.40
2497;DHT22;1259;48.306;14.374;2023-07-31T11:39:58;23.70;89.60
2497;DHT22;1259;48.306;14.374;2023-07-31T11:42:26;23.80;90.00
2497;DHT22;1259;48.306;14.374;2023-07-31T11:44:52;24.00;90.10
2497;DHT22;1259;48.306;14.374;2023-07-31T11:47:19;24.00;90.60
2497;DHT22;1259;48.306;14.374;2023-07-31T11:49:46;24.00;90.60
2497;DHT22;1259;48.306;14.374;2023-07-31T11:52:12;23.80;90.00
2497;DHT22;1259;48.306;14.374;2023-07-31T11:54:39;23.80;90.40
2497;DHT22;1259;48.306;14.374;2023-07-31T11:57:06;24.00;91.60
2497;DHT22;1259;48.306;14.374;2023-07-31T11:59:34;24.00;91.00
2497;DHT22;1259;48.306;14.374;2023-07-31T12:02:01;24.00;90.60
2497;DHT22;1259;48.306;14.374;2023-07-31T12:04:28;24.00;89.90
2497;DHT22;1259;48.306;14.374;2023-07-31T12:06:55;23.90;90.90
2497;DHT22;1259;48.306;14.374;2023-07-31T12:09:21;24.00;91.00
2497;DHT22;1259;48.306;14.374;2023-07-31T12:11:49;24.10;90.60
2497;DHT22;1259;48.306;14.374;2023-07-31T12:14:22;24.10;89.40
2497;DHT22;1259;48.306;14.374;2023-07-31T12:16:54;24.00;90.20
2497;DHT22;1259;48.306;14.374;2023-07-31T12:19:21;23.90;91.10
2497;DHT22;1259;48.306;14.374;2023-07-31T12:21:47;24.30;91.00
2497;DHT22;1259;48.306;14.374;2023-07-31T12:24:14;24.30;90.00
2497;DHT22;1259;48.306;14.374;2023-07-31T12:26:42;24.20;89.60
2497;DHT22;1259;48.306;14.374;2023-07-31T12:29:11;24.20;87.80
2497;DHT22;1259;48.306;14.374;2023-07-31T12:31:38;24.10;88.90
2497;DHT22;1259;48.306;14.374;2023-07-31T12:34:15;24.10;89.20
2497;DHT22;1259;48.306;14.374;2023-07-31T12:36:43;24.10;88.90
2497;DHT22;1259;48.306;14.374;2023-07-31T12:39:09;24.10;89.90
2497;DHT22;1259;48.306;14.374;2023-07-31T12:41:36;24.20;88.20
2497;DHT22;1259;48.306;14.374;2023-07-31T12:44:03;24.30;90.20
2497;DHT22;1259;48.306;14.374;2023-07-31T12:46:29;24.30;89.50
2497;DHT22;1259;48.306;14.374;2023-07-31T12:48:56;24.20;90.10
2497;DHT22;1259;48.306;14.374;2023-07-31T12:51:24;24.30;90.40
2497;DHT22;1259;48.306;14.374;2023-07-31T12:53:51;24.20;87.40
2497;DHT22;1259;48.306;14.374;2023-07-31T12:56:18;24.10;89.40
2497;DHT22;1259;48.306;14.374;2023-07-31T12:58:44;23.90;87.20
2497;DHT22;1259;48.306;14.374;2023-07-31T13:01:11;24.10;86.20
2497;DHT22;1259;48.306;14.374;2023-07-31T13:03:38;24.20;87.20
2497;DHT22;1259;48.306;14.374;2023-07-31T13:06:04;24.10;87.40
2497;DHT22;1259;48.306;14.374;2023-07-31T13:08:33;23.90;87.30
2497;DHT22;1259;48.306;14.374;2023-07-31T13:11:00;23.90;88.50
2497;DHT22;1259;48.306;14.374;2023-07-31T13:13:26;24.00;90.20
2497;DHT22;1259;48.306;14.374;2023-07-31T13:15:53;24.00;89.00
2497;DHT22;1259;48.306;14.374;2023-07-31T13:18:20;24.10;88.20
2497;DHT22;1259;48.306;14.374;2023-07-31T13:20:47;24.00;87.20
2497;DHT22;1259;48.306;14.374;2023-07-31T13:23:13;24.00;87.60
2497;DHT22;1259;48.306;14.374;2023-07-31T13:25:40;24.10;88.00
2497;DHT22;1259;48.306;14.374;2023-07-31T13:28:08;24.20;89.00
2497;DHT22;1259;48.306;14.374;2023-07-31T13:30:35;24.30;86.40
2497;DHT22;1259;48.306;14.374;2023-07-31T13:33:01;24.30;88.60
2497;DHT22;1259;48.306;14.374;2023-07-31T13:35:28;24.30;86.70
2497;DHT22;1259;48.306;14.374;2023-07-31T13:37:56;24.10;86.90
2497;DHT22;1259;48.306;14.374;2023-07-31T13:40:23;24.00;86.90
2497;DHT22;1259;48.306;14.374;2023-07-31T13:42:51;24.10;88.70
2497;DHT22;1259;48.306;14.374;2023-07-31T13:45:19;24.00;87.30
2497;DHT22;1259;48.306;14.374;2023-07-31T13:47:46;23.90;85.20
2497;DHT22;1259;48.306;14.374;2023-07-31T13:50:12;24.10;88.40
2497;DHT22;1259;48.306;14.374;2023-07-31T13:52:39;24.10;88.80
2497;DHT22;1259;48.306;14.374;2023-07-31T13:55:06;24.10;86.60
2497;DHT22;1259;48.306;14.374;2023-07-31T13:57:33;24.00;83.80
2497;DHT22;1259;48.306;14.374;2023-07-31T14:00:01;24.00;83.80
2497;DHT22;1259;48.306;14.374;2023-07-31T14:02:29;24.00;85.00
2497;DHT22;1259;48.306;14.374;2023-07-31T14:04:56;24.00;82.50
2497;DHT22;1259;48.306;14.374;2023-07-31T14:07:23;24.00;87.00
2497;DHT22;1259;48.306;14.374;2023-07-31T14:09:49;24.10;86.50
2497;DHT22;1259;48.306;14.374;2023-07-31T14:12:16;24.30;87.00
2497;DHT22;1259;48.306;14.374;2023-07-31T14:14:43;24.10;83.10
2497;DHT22;1259;48.306;14.374;2023-07-31T14:17:11;24.10;87.90
2497;DHT22;1259;48.306;14.374;2023-07-31T14:19:37;24.00;86.40
2497;DHT22;1259;48.306;14.374;2023-07-31T14:22:04;24.00;85.70
2497;DHT22;1259;48.306;14.374;2023-07-31T14:24:31;24.00;87.40
2497;DHT22;1259;48.306;14.374;2023-07-31T14:26:58;24.00;86.30
2497;DHT22;1259;48.306;14.374;2023-07-31T14:29:24;24.00;88.40
2497;DHT22;1259;48.306;14.374;2023-07-31T14:31:51;23.90;87.00
2497;DHT22;1259;48.306;14.374;2023-07-31T14:34:19;24.00;86.10
2497;DHT22;1259;48.306;14.374;2023-07-31T14:36:46;24.00;86.20
2497;DHT22;1259;48.306;14.374;2023-07-31T14:39:12;24.00;85.00
2497;DHT22;1259;48.306;14.374;2023-07-31T14:41:39;24.10;86.80
2497;DHT22;1259;48.306;14.374;2023-07-31T14:44:06;23.90;85.50
2497;DHT22;1259;48.306;14.374;2023-07-31T14:46:32;24.00;86.70
2497;DHT22;1259;48.306;14.374;2023-07-31T14:48:59;24.00;85.80
2497;DHT22;1259;48.306;14.374;2023-07-31T14:51:27;24.10;86.10
2497;DHT22;1259;48.306;14.374;2023-07-31T14:53:54;24.00;86.50
2497;DHT22;1259;48.306;14.374;2023-07-31T14:56:21;24.10;84.80
2497;DHT22;1259;48.306;14.374;2023-07-31T14:58:47;24.10;85.20
2497;DHT22;1259;48.306;14.374;2023-07-31T15:01:14;24.00;85.00
2497;DHT22;1259;48.306;14.374;2023-07-31T15:03:40;24.00;82.90
2497;DHT22;1259;48.306;14.374;2023-07-31T15:06:07;23.90;84.30
2497;DHT22;1259;48.306;14.374;2023-07-31T15:08:35;23.90;85.60
2497;DHT22;1259;48.306;14.374;2023-07-31T15:11:02;23.90;85.60
2497;DHT22;1259;48.306;14.374;2023-07-31T15:13:29;23.90;83.80
2497;DHT22;1259;48.306;14.374;2023-07-31T15:15:56;23.80;83.60
2497;DHT22;1259;48.306;14.374;2023-07-31T15:18:23;23.90;85.50
2497;DHT22;1259;48.306;14.374;2023-07-31T15:20:50;23.90;83.20
2497;DHT22;1259;48.306;14.374;2023-07-31T15:23:16;23.90;85.80
2497;DHT22;1259;48.306;14.374;2023-07-31T15:25:45;23.80;84.20
2497;DHT22;1259;48.306;14.374;2023-07-31T15:28:11;23.70;82.10
2497;DHT22;1259;48.306;14.374;2023-07-31T15:30:38;23.90;84.50
2497;DHT22;1259;48.306;14.374;2023-07-31T15:33:05;23.80;84.00
2497;DHT22;1259;48.306;14.374;2023-07-31T15:35:31;23.80;81.70
2497;DHT22;1259;48.306;14.374;2023-07-31T15:37:58;23.90;84.70
2497;DHT22;1259;48.306;14.374;2023-07-31T15:40:25;23.90;84.60
2497;DHT22;1259;48.306;14.374;2023-07-31T15:42:53;23.90;83.50
2497;DHT22;1259;48.306;14.374;2023-07-31T15:45:19;23.90;85.00
2497;DHT22;1259;48.306;14.374;2023-07-31T15:47:47;23.80;84.40